createdAt,value
2023-11-25T00:00:58.996Z,4.66
2023-11-25T00:01:58.973Z,4.59
2023-11-25T00:02:58.901Z,4.58
2023-11-25T00:03:58.873Z,4.53
2023-11-25T00:04:58.884Z,4.55
2023-11-25T00:05:58.879Z,4.59
2023-11-25T00:06:58.841Z,4.56
2023-11-25T00:07:58.843Z,4.55
2023-11-25T00:08:58.837Z,4.56
2023-11-25T00:09:58.838Z,4.59
2023-11-25T00:10:58.870Z,4.53
2023-11-25T00:11:58.790Z,4.48
2023-11-25T00:12:58.777Z,4.48
2023-11-25T00:13:58.794Z,4.50
2023-11-25T00:14:58.813Z,4.56
2023-11-25T00:15:58.750Z,4.63
2023-11-25T00:16:58.855Z,4.70
2023-11-25T00:17:58.755Z,4.75
2023-11-25T00:18:58.728Z,4.84
2023-11-25T00:19:58.729Z,4.89
2023-11-25T00:20:58.702Z,4.96
2023-11-25T00:21:58.688Z,5.00
2023-11-25T00:22:58.688Z,5.07
2023-11-25T00:23:58.693Z,5.11
2023-11-25T00:24:58.715Z,5.14
2023-11-25T00:25:58.648Z,5.17
2023-11-25T00:26:58.666Z,5.20
2023-11-25T00:27:58.628Z,5.23
2023-11-25T00:28:58.650Z,5.23
2023-11-25T00:29:58.614Z,5.25
2023-11-25T00:30:58.603Z,5.26
2023-11-25T00:31:58.584Z,5.28
2023-11-25T00:32:58.610Z,5.28
2023-11-25T00:33:58.626Z,5.29
2023-11-25T00:34:58.612Z,5.29
2023-11-25T00:35:58.537Z,5.26
2023-11-25T00:36:58.525Z,5.28
2023-11-25T00:37:58.538Z,5.28
2023-11-25T00:38:58.554Z,5.26
2023-11-25T00:39:58.520Z,5.29
2023-11-25T00:40:58.503Z,5.29
2023-11-25T00:41:58.520Z,5.30
2023-11-25T00:42:58.503Z,5.32
2023-11-25T00:43:58.658Z,5.35
2023-11-25T00:44:58.469Z,5.36
2023-11-25T00:45:58.481Z,5.38
2023-11-25T00:46:58.483Z,5.39
2023-11-25T00:47:58.507Z,5.39
2023-11-25T00:48:58.405Z,5.39
2023-11-25T00:49:58.436Z,5.38
2023-11-25T00:50:58.393Z,5.38
2023-11-25T00:51:58.411Z,5.39
2023-11-25T00:52:58.389Z,5.33
2023-11-25T00:53:58.358Z,5.26
2023-11-25T00:54:58.340Z,5.21
2023-11-25T00:55:58.343Z,5.21
2023-11-25T00:56:58.349Z,5.20
2023-11-25T00:57:58.314Z,5.15
2023-11-25T00:58:58.306Z,5.10
2023-11-25T00:59:58.308Z,5.08
2023-11-25T01:00:58.281Z,5.05
2023-11-25T01:01:58.379Z,4.99
2023-11-25T01:02:58.357Z,4.96
2023-11-25T01:03:58.305Z,4.93
2023-11-25T01:04:58.260Z,4.87
2023-11-25T01:05:58.258Z,4.84
2023-11-25T01:06:58.238Z,4.74
2023-11-25T01:07:58.214Z,4.71
2023-11-25T01:08:58.208Z,4.68
2023-11-25T01:09:58.200Z,4.62
2023-11-25T01:10:58.206Z,4.59
2023-11-25T01:11:58.172Z,4.60
2023-11-25T01:12:58.179Z,4.62
2023-11-25T01:13:58.222Z,4.62
2023-11-25T01:14:58.175Z,4.49
2023-11-25T01:15:58.212Z,4.41
2023-11-25T01:16:58.259Z,4.32
2023-11-25T01:17:58.130Z,4.30
2023-11-25T01:18:58.104Z,4.26
2023-11-25T01:19:58.166Z,4.30
2023-11-25T01:20:58.121Z,4.28
2023-11-25T01:21:58.099Z,4.32
2023-11-25T01:22:58.053Z,4.32
2023-11-25T01:23:58.072Z,4.35
2023-11-25T01:24:58.078Z,4.37
2023-11-25T01:25:58.048Z,4.31
2023-11-25T01:26:58.030Z,4.30
2023-11-25T01:27:58.020Z,4.23
2023-11-25T01:28:58.029Z,4.26
2023-11-25T01:29:58.023Z,4.26
2023-11-25T01:30:58.018Z,4.28
2023-11-25T01:31:57.997Z,4.26
2023-11-25T01:32:58.011Z,4.19
2023-11-25T01:33:58.031Z,4.13
2023-11-25T01:34:58.061Z,4.14
2023-11-25T01:35:57.934Z,4.17
2023-11-25T01:36:57.999Z,4.17
2023-11-25T01:37:57.921Z,4.17
2023-11-25T01:38:57.951Z,4.17
2023-11-25T01:39:57.895Z,4.17
2023-11-25T01:40:57.876Z,4.19
2023-11-25T01:41:57.877Z,4.19
2023-11-25T01:42:57.851Z,4.20
2023-11-25T01:43:57.865Z,4.22
2023-11-25T01:44:57.830Z,4.10
2023-11-25T01:45:57.886Z,3.99
2023-11-25T01:46:57.866Z,3.95
2023-11-25T01:47:57.836Z,3.95
2023-11-25T01:48:57.808Z,3.95
2023-11-25T01:49:57.781Z,3.99
2023-11-25T01:50:57.766Z,4.02
2023-11-25T01:51:57.764Z,4.05
2023-11-25T01:52:57.772Z,4.05
2023-11-25T01:53:57.799Z,3.94
2023-11-25T01:54:57.737Z,3.87
2023-11-25T01:55:57.753Z,3.88
2023-11-25T01:56:57.734Z,3.92
2023-11-25T01:57:57.713Z,3.95
2023-11-25T01:58:57.696Z,3.95
2023-11-25T01:59:57.670Z,3.98
2023-11-25T02:00:57.669Z,4.02
2023-11-25T02:01:57.921Z,4.05
2023-11-25T02:02:57.769Z,4.05
2023-11-25T02:03:57.646Z,3.99
2023-11-25T02:04:57.696Z,3.94
2023-11-25T02:05:57.641Z,3.91
2023-11-25T02:06:57.616Z,3.91
2023-11-25T02:07:57.638Z,3.92
2023-11-25T02:08:57.590Z,3.94
2023-11-25T02:09:57.595Z,3.95
2023-11-25T02:10:57.571Z,3.96
2023-11-25T02:11:57.608Z,3.95
2023-11-25T02:12:57.546Z,3.94
2023-11-25T02:13:57.562Z,3.95
2023-11-25T02:14:57.511Z,3.94
2023-11-25T02:15:57.522Z,3.91
2023-11-25T02:16:57.864Z,3.87
2023-11-25T02:17:57.557Z,3.87
2023-11-25T02:18:57.471Z,3.92
2023-11-25T02:19:57.472Z,3.98
2023-11-25T02:20:57.489Z,4.04
2023-11-25T02:21:57.706Z,4.04
2023-11-25T02:22:57.433Z,4.02
2023-11-25T02:23:57.470Z,3.99
2023-11-25T02:24:57.424Z,3.99
2023-11-25T02:25:57.455Z,3.99
2023-11-25T02:26:57.416Z,4.02
2023-11-25T02:27:57.374Z,4.06
2023-11-25T02:28:57.362Z,4.13
2023-11-25T02:29:57.361Z,4.10
2023-11-25T02:30:57.446Z,4.13
2023-11-25T02:31:57.400Z,4.16
2023-11-25T02:32:57.366Z,4.19
2023-11-25T02:33:57.305Z,4.20
2023-11-25T02:34:57.326Z,4.20
2023-11-25T02:35:57.313Z,4.19
2023-11-25T02:36:57.289Z,4.20
2023-11-25T02:37:57.290Z,4.26
2023-11-25T02:38:59.085Z,4.30
2023-11-25T02:39:57.240Z,4.30
2023-11-25T02:40:57.301Z,4.30
2023-11-25T02:41:57.228Z,4.26
2023-11-25T02:42:57.227Z,4.17
2023-11-25T02:43:57.267Z,4.13
2023-11-25T02:44:57.219Z,4.08
2023-11-25T02:45:57.211Z,4.04
2023-11-25T02:46:57.189Z,4.01
2023-11-25T02:47:57.233Z,3.98
2023-11-25T02:48:57.168Z,3.95
2023-11-25T02:49:57.181Z,3.91
2023-11-25T02:50:57.152Z,3.88
2023-11-25T02:51:57.168Z,3.91
2023-11-25T02:52:57.142Z,3.91
2023-11-25T02:53:57.126Z,3.96
2023-11-25T02:54:57.105Z,3.95
2023-11-25T02:55:57.070Z,3.98
2023-11-25T02:56:57.076Z,3.99
2023-11-25T02:57:57.069Z,3.99
2023-11-25T02:58:57.082Z,3.98
2023-11-25T02:59:57.032Z,3.98
2023-11-25T03:00:57.076Z,3.96
2023-11-25T03:01:57.078Z,3.96
2023-11-25T03:02:57.099Z,3.96
2023-11-25T03:03:57.088Z,3.96
2023-11-25T03:04:57.036Z,3.98
2023-11-25T03:05:56.977Z,3.94
2023-11-25T03:06:57.005Z,3.94
2023-11-25T03:07:57.036Z,3.92
2023-11-25T03:08:56.977Z,3.87
2023-11-25T03:09:56.954Z,3.84
2023-11-25T03:10:56.931Z,3.77
2023-11-25T03:11:56.908Z,3.69
2023-11-25T03:12:56.916Z,3.69
2023-11-25T03:13:56.911Z,3.73
2023-11-25T03:14:56.896Z,3.69
2023-11-25T03:15:56.886Z,3.76
2023-11-25T03:16:56.982Z,3.78
2023-11-25T03:17:56.886Z,3.78
2023-11-25T03:18:56.842Z,3.73
2023-11-25T03:19:56.829Z,3.76
2023-11-25T03:20:56.852Z,3.76
2023-11-25T03:21:56.814Z,3.78
2023-11-25T03:22:56.835Z,3.80
2023-11-25T03:23:56.782Z,3.74
2023-11-25T03:24:56.801Z,3.70
2023-11-25T03:25:56.792Z,3.68
2023-11-25T03:26:56.781Z,3.69
2023-11-25T03:27:56.783Z,3.74
2023-11-25T03:28:56.742Z,3.74
2023-11-25T03:29:56.721Z,3.77
2023-11-25T03:30:56.738Z,3.78
2023-11-25T03:31:56.828Z,3.84
2023-11-25T03:32:56.708Z,3.83
2023-11-25T03:33:56.694Z,3.80
2023-11-25T03:34:58.469Z,3.77
2023-11-25T03:35:56.680Z,3.73
2023-11-25T03:36:56.704Z,3.70
2023-11-25T03:37:56.636Z,3.66
2023-11-25T03:38:56.637Z,3.65
2023-11-25T03:39:56.614Z,3.66
2023-11-25T03:40:56.633Z,3.69
2023-11-25T03:41:56.633Z,3.74
2023-11-25T03:42:56.588Z,3.76
2023-11-25T03:43:56.576Z,3.78
2023-11-25T03:44:56.566Z,3.80
2023-11-25T03:45:56.619Z,3.83
2023-11-25T03:46:56.615Z,3.84
2023-11-25T03:47:56.562Z,3.83
2023-11-25T03:48:56.526Z,3.84
2023-11-25T03:49:56.577Z,3.86
2023-11-25T03:50:56.528Z,3.87
2023-11-25T03:51:56.493Z,3.88
2023-11-25T03:52:56.485Z,3.91
2023-11-25T03:53:56.466Z,3.95
2023-11-25T03:54:56.505Z,3.98
2023-11-25T03:55:56.443Z,3.98
2023-11-25T03:56:56.448Z,4.01
2023-11-25T03:57:56.469Z,4.02
2023-11-25T03:58:56.415Z,4.08
2023-11-25T03:59:56.439Z,4.12
2023-11-25T04:00:56.445Z,4.10
2023-11-25T04:01:56.468Z,3.98
2023-11-25T04:02:56.427Z,3.87
2023-11-25T04:03:56.409Z,3.84
2023-11-25T04:04:56.436Z,3.84
2023-11-25T04:05:56.358Z,3.88
2023-11-25T04:06:56.365Z,3.92
2023-11-25T04:07:56.328Z,3.88
2023-11-25T04:08:56.332Z,3.87
2023-11-25T04:09:56.308Z,3.87
2023-11-25T04:10:56.322Z,3.88
2023-11-25T04:11:56.309Z,3.92
2023-11-25T04:12:56.284Z,3.95
2023-11-25T04:13:56.270Z,3.95
2023-11-25T04:14:56.248Z,3.98
2023-11-25T04:15:56.280Z,3.99
2023-11-25T04:16:56.274Z,4.02
2023-11-25T04:17:56.292Z,4.01
2023-11-25T04:18:56.228Z,4.04
2023-11-25T04:19:56.189Z,4.04
2023-11-25T04:20:56.225Z,4.05
2023-11-25T04:21:56.176Z,4.05
2023-11-25T04:22:56.185Z,4.08
2023-11-25T04:23:56.149Z,4.12
2023-11-25T04:24:56.139Z,4.16
2023-11-25T04:25:56.144Z,4.17
2023-11-25T04:26:56.152Z,4.16
2023-11-25T04:27:56.136Z,4.13
2023-11-25T04:28:56.118Z,4.13
2023-11-25T04:29:56.075Z,4.05
2023-11-25T04:30:56.080Z,3.98
2023-11-25T04:31:56.163Z,3.96
2023-11-25T04:32:56.124Z,3.98
2023-11-25T04:33:56.092Z,4.04
2023-11-25T04:34:56.040Z,4.08
2023-11-25T04:35:56.023Z,4.08
2023-11-25T04:36:56.084Z,4.10
2023-11-25T04:37:56.020Z,4.12
2023-11-25T04:38:56.002Z,4.10
2023-11-25T04:39:55.977Z,4.06
2023-11-25T04:40:56.045Z,4.02
2023-11-25T04:41:56.015Z,3.99
2023-11-25T04:42:55.965Z,3.94
2023-11-25T04:43:55.998Z,3.86
2023-11-25T04:44:55.927Z,3.84
2023-11-25T04:45:55.927Z,3.83
2023-11-25T04:46:55.984Z,3.84
2023-11-25T04:47:55.933Z,3.81
2023-11-25T04:48:55.916Z,3.76
2023-11-25T04:49:55.900Z,3.76
2023-11-25T04:50:55.897Z,3.77
2023-11-25T04:51:55.864Z,3.78
2023-11-25T04:52:55.850Z,3.77
2023-11-25T04:53:55.839Z,3.74
2023-11-25T04:54:55.826Z,3.77
2023-11-25T04:55:55.889Z,3.81
2023-11-25T04:56:55.812Z,3.83
2023-11-25T04:57:55.794Z,3.83
2023-11-25T04:58:55.771Z,3.83
2023-11-25T04:59:55.768Z,3.87
2023-11-25T05:00:55.804Z,3.94
2023-11-25T05:01:55.806Z,3.92
2023-11-25T05:02:55.734Z,3.91
2023-11-25T05:03:55.724Z,3.92
2023-11-25T05:04:55.744Z,3.94
2023-11-25T05:05:55.740Z,3.96
2023-11-25T05:06:55.713Z,3.95
2023-11-25T05:07:55.712Z,3.86
2023-11-25T05:08:55.692Z,3.83
2023-11-25T05:09:55.677Z,3.84
2023-11-25T05:10:55.705Z,3.88
2023-11-25T05:11:55.656Z,3.92
2023-11-25T05:12:55.637Z,3.95
2023-11-25T05:13:55.670Z,3.99
2023-11-25T05:14:55.639Z,4.01
2023-11-25T05:15:55.628Z,3.99
2023-11-25T05:16:55.666Z,4.01
2023-11-25T05:17:55.627Z,4.02
2023-11-25T05:18:55.591Z,4.02
2023-11-25T05:19:55.569Z,4.05
2023-11-25T05:20:55.556Z,4.06
2023-11-25T05:21:55.549Z,4.10
2023-11-25T05:22:55.563Z,4.08
2023-11-25T05:23:55.528Z,4.06
2023-11-25T05:24:55.516Z,4.01
2023-11-25T05:25:55.574Z,4.01
2023-11-25T05:26:55.483Z,3.91
2023-11-25T05:27:55.466Z,3.81
2023-11-25T05:28:55.490Z,3.73
2023-11-25T05:29:55.433Z,3.66
2023-11-25T05:30:55.472Z,3.60
2023-11-25T05:31:55.477Z,3.59
2023-11-25T05:32:55.502Z,3.65
2023-11-25T05:33:55.428Z,3.73
2023-11-25T05:34:55.400Z,3.77
2023-11-25T05:35:55.385Z,3.80
2023-11-25T05:36:55.389Z,3.80
2023-11-25T05:37:55.422Z,3.80
2023-11-25T05:38:55.348Z,3.86
2023-11-25T05:39:55.335Z,3.88
2023-11-25T05:40:55.379Z,3.87
2023-11-25T05:41:55.320Z,3.92
2023-11-25T05:42:55.448Z,3.99
2023-11-25T05:43:55.297Z,4.04
2023-11-25T05:44:55.300Z,4.08
2023-11-25T05:45:55.298Z,4.14
2023-11-25T05:46:55.377Z,4.20
2023-11-25T05:47:55.351Z,4.26
2023-11-25T05:48:55.245Z,4.28
2023-11-25T05:49:55.240Z,4.26
2023-11-25T05:50:55.225Z,4.13
2023-11-25T05:51:57.700Z,4.04
2023-11-25T05:52:55.232Z,3.95
2023-11-25T05:53:55.212Z,3.87
2023-11-25T05:54:55.223Z,3.88
2023-11-25T05:55:55.212Z,3.91
2023-11-25T05:56:55.196Z,3.91
2023-11-25T05:57:57.085Z,3.91
2023-11-25T05:58:55.134Z,3.94
2023-11-25T05:59:55.128Z,3.96
2023-11-25T06:00:55.111Z,4.02
2023-11-25T06:01:55.172Z,4.05
2023-11-25T06:02:55.103Z,4.06
2023-11-25T06:03:55.110Z,4.05
2023-11-25T06:04:55.139Z,4.08
2023-11-25T06:05:55.071Z,4.12
2023-11-25T06:06:55.078Z,4.06
2023-11-25T06:07:55.064Z,4.10
2023-11-25T06:08:55.023Z,4.13
2023-11-25T06:09:55.010Z,4.17
2023-11-25T06:10:55.068Z,4.19
2023-11-25T06:11:55.033Z,4.22
2023-11-25T06:12:55.015Z,4.26
2023-11-25T06:13:54.965Z,4.13
2023-11-25T06:14:54.967Z,4.10
2023-11-25T06:15:54.986Z,4.06
2023-11-25T06:16:55.033Z,4.10
2023-11-25T06:17:54.991Z,4.14
2023-11-25T06:18:54.923Z,4.14
2023-11-25T06:19:54.990Z,4.10
2023-11-25T06:20:54.938Z,4.13
2023-11-25T06:21:54.895Z,4.12
2023-11-25T06:22:54.949Z,4.01
2023-11-25T06:23:54.872Z,4.02
2023-11-25T06:24:54.895Z,4.05
2023-11-25T06:25:54.876Z,4.06
2023-11-25T06:26:54.936Z,4.12
2023-11-25T06:27:54.829Z,4.14
2023-11-25T06:28:54.835Z,4.14
2023-11-25T06:29:54.837Z,4.10
2023-11-25T06:30:54.811Z,4.06
2023-11-25T06:31:54.801Z,4.04
2023-11-25T06:32:54.805Z,3.99
2023-11-25T06:33:54.791Z,3.96
2023-11-25T06:34:54.852Z,4.02
2023-11-25T06:35:54.724Z,4.08
2023-11-25T06:36:54.744Z,4.12
2023-11-25T06:37:54.776Z,4.16
2023-11-25T06:38:54.708Z,4.17
2023-11-25T06:39:54.665Z,4.23
2023-11-25T06:40:54.683Z,4.28
2023-11-25T06:41:54.652Z,4.31
2023-11-25T06:42:54.635Z,4.32
2023-11-25T06:43:54.703Z,4.26
2023-11-25T06:44:54.618Z,4.22
2023-11-25T06:45:54.617Z,4.23
2023-11-25T06:46:54.616Z,4.28
2023-11-25T06:47:54.611Z,4.28
2023-11-25T06:48:54.591Z,4.23
2023-11-25T06:49:54.581Z,4.20
2023-11-25T06:50:54.554Z,4.23
2023-11-25T06:51:54.549Z,4.26
2023-11-25T06:52:54.585Z,4.28
2023-11-25T06:53:54.579Z,4.26
2023-11-25T06:54:54.504Z,4.30
2023-11-25T06:55:54.543Z,4.28
2023-11-25T06:56:54.474Z,4.23
2023-11-25T06:57:54.491Z,4.20
2023-11-25T06:58:54.499Z,4.20
2023-11-25T06:59:54.453Z,4.22
2023-11-25T07:00:54.446Z,4.19
2023-11-25T07:01:54.503Z,4.17
2023-11-25T07:02:54.462Z,4.22
2023-11-25T07:03:54.430Z,4.22
2023-11-25T07:04:54.428Z,4.17
2023-11-25T07:05:54.423Z,4.16
2023-11-25T07:06:54.418Z,4.19
2023-11-25T07:07:54.414Z,4.22
2023-11-25T07:08:54.351Z,4.22
2023-11-25T07:09:54.373Z,4.24
2023-11-25T07:10:54.354Z,4.20
2023-11-25T07:11:54.349Z,4.19
2023-11-25T07:12:54.339Z,4.20
2023-11-25T07:13:54.356Z,4.23
2023-11-25T07:14:54.284Z,4.26
2023-11-25T07:15:54.294Z,4.30
2023-11-25T07:16:54.361Z,4.32
2023-11-25T07:17:54.329Z,4.35
2023-11-25T07:18:54.278Z,4.37
2023-11-25T07:19:54.337Z,4.38
2023-11-25T07:20:56.447Z,4.32
2023-11-25T07:21:54.239Z,4.32
2023-11-25T07:22:54.478Z,4.32
2023-11-25T07:23:54.203Z,4.28
2023-11-25T07:24:54.212Z,4.23
2023-11-25T07:25:54.309Z,4.23
2023-11-25T07:26:54.162Z,4.20
2023-11-25T07:27:54.164Z,4.22
2023-11-25T07:28:54.198Z,4.19
2023-11-25T07:29:54.138Z,4.16
2023-11-25T07:30:54.191Z,4.17
2023-11-25T07:31:54.136Z,4.20
2023-11-25T07:32:54.163Z,4.30
2023-11-25T07:33:54.115Z,4.32
2023-11-25T07:34:54.128Z,4.32
2023-11-25T07:35:54.100Z,4.37
2023-11-25T07:36:54.066Z,4.38
2023-11-25T07:37:54.111Z,4.34
2023-11-25T07:38:54.067Z,4.26
2023-11-25T07:39:54.071Z,4.26
2023-11-25T07:40:54.062Z,4.31
2023-11-25T07:41:54.026Z,4.32
2023-11-25T07:42:54.015Z,4.28
2023-11-25T07:43:54.074Z,4.30
2023-11-25T07:44:54.036Z,4.22
2023-11-25T07:45:53.983Z,4.17
2023-11-25T07:46:54.011Z,4.14
2023-11-25T07:47:54.199Z,4.17
2023-11-25T07:48:53.946Z,4.23
2023-11-25T07:49:54.038Z,4.30
2023-11-25T07:50:54.037Z,4.32
2023-11-25T07:51:53.928Z,4.35
2023-11-25T07:52:53.992Z,4.32
2023-11-25T07:53:54.027Z,4.32
2023-11-25T07:54:53.899Z,4.24
2023-11-25T07:55:53.919Z,4.22
2023-11-25T07:56:53.859Z,4.23
2023-11-25T07:57:53.864Z,4.22
2023-11-25T07:58:53.951Z,4.24
2023-11-25T07:59:53.841Z,4.30
2023-11-25T08:00:53.810Z,4.32
2023-11-25T08:01:53.887Z,4.35
2023-11-25T08:02:54.038Z,4.34
2023-11-25T08:03:53.930Z,4.30
2023-11-25T08:04:53.839Z,4.32
2023-11-25T08:05:53.788Z,4.37
2023-11-25T08:06:53.790Z,4.37
2023-11-25T08:07:53.969Z,4.37
2023-11-25T08:08:53.814Z,4.35
2023-11-25T08:09:53.765Z,4.40
2023-11-25T08:10:53.735Z,4.42
2023-11-25T08:11:53.709Z,4.49
2023-11-25T08:12:53.751Z,4.53
2023-11-25T08:13:53.718Z,4.56
2023-11-25T08:14:53.699Z,4.53
2023-11-25T08:15:53.716Z,4.53
2023-11-25T08:16:53.740Z,4.56
2023-11-25T08:17:53.727Z,4.59
2023-11-25T08:18:53.653Z,4.55
2023-11-25T08:19:53.717Z,4.59
2023-11-25T08:20:53.671Z,4.62
2023-11-25T08:21:53.644Z,4.59
2023-11-25T08:22:53.679Z,4.60
2023-11-25T08:23:53.706Z,4.58
2023-11-25T08:24:53.577Z,4.56
2023-11-25T08:25:53.610Z,4.52
2023-11-25T08:26:53.667Z,4.52
2023-11-25T08:27:53.539Z,4.53
2023-11-25T08:28:53.634Z,4.53
2023-11-25T08:29:53.560Z,4.53
2023-11-25T08:30:53.498Z,4.53
2023-11-25T08:31:53.592Z,4.52
2023-11-25T08:32:53.572Z,4.50
2023-11-25T08:33:53.520Z,4.50
2023-11-25T08:34:53.539Z,4.50
2023-11-25T08:35:53.472Z,4.55
2023-11-25T08:36:53.907Z,4.44
2023-11-25T08:37:53.487Z,4.42
2023-11-25T08:38:53.462Z,4.44
2023-11-25T08:39:53.461Z,4.49
2023-11-25T08:40:53.483Z,4.55
2023-11-25T08:41:53.454Z,4.56
2023-11-25T08:42:53.469Z,4.52
2023-11-25T08:43:53.411Z,4.56
2023-11-25T08:44:53.445Z,4.62
2023-11-25T08:45:53.429Z,4.67
2023-11-25T08:46:53.377Z,4.63
2023-11-25T08:47:53.475Z,4.67
2023-11-25T08:48:53.370Z,4.74
2023-11-25T08:49:53.338Z,4.78
2023-11-25T08:50:53.398Z,4.80
2023-11-25T08:51:53.299Z,4.86
2023-11-25T08:52:53.380Z,4.77
2023-11-25T08:53:53.266Z,4.70
2023-11-25T08:54:53.299Z,4.66
2023-11-25T08:55:53.380Z,4.67
2023-11-25T08:56:53.254Z,4.63
2023-11-25T08:57:53.240Z,4.67
2023-11-25T08:58:59.026Z,4.74
2023-11-25T08:59:53.282Z,4.75
2023-11-25T09:00:53.190Z,4.82
2023-11-25T09:01:53.411Z,4.78
2023-11-25T09:02:54.086Z,4.78
2023-11-25T09:03:53.194Z,4.78
2023-11-25T09:05:03.680Z,4.75
2023-11-25T09:05:53.174Z,4.75
2023-11-25T09:06:53.141Z,4.80
2023-11-25T09:07:53.306Z,4.84
2023-11-25T09:08:53.200Z,4.86
2023-11-25T09:09:53.159Z,4.87
2023-11-25T09:10:53.138Z,4.87
2023-11-25T09:11:53.125Z,4.89
2023-11-25T09:12:53.087Z,4.93
2023-11-25T09:13:53.163Z,4.99
2023-11-25T09:14:53.067Z,5.04
2023-11-25T09:15:53.145Z,4.97
2023-11-25T09:16:53.079Z,4.94
2023-11-25T09:17:53.492Z,4.90
2023-11-25T09:18:53.072Z,4.90
2023-11-25T09:19:53.142Z,4.93
2023-11-25T09:20:52.999Z,4.96
2023-11-25T09:21:52.990Z,4.94
2023-11-25T09:22:53.212Z,4.94
2023-11-25T09:23:52.997Z,4.94
2023-11-25T09:24:52.978Z,4.90
2023-11-25T09:25:52.999Z,4.90
2023-11-25T09:26:53.036Z,4.92
2023-11-25T09:27:53.034Z,4.92
2023-11-25T09:28:52.950Z,4.87
2023-11-25T09:29:52.916Z,4.82
2023-11-25T09:30:52.907Z,4.77
2023-11-25T09:31:52.925Z,4.77
2023-11-25T09:32:52.950Z,4.84
2023-11-25T09:33:52.915Z,4.84
2023-11-25T09:34:52.881Z,4.82
2023-11-25T09:35:52.859Z,4.87
2023-11-25T09:36:52.860Z,4.92
2023-11-25T09:37:52.902Z,4.92
2023-11-25T09:38:52.802Z,4.97
2023-11-25T09:39:52.925Z,4.99
2023-11-25T09:40:52.836Z,5.04
2023-11-25T09:41:52.809Z,5.11
2023-11-25T09:42:52.790Z,5.17
2023-11-25T09:43:52.767Z,5.18
2023-11-25T09:44:52.754Z,5.21
2023-11-25T09:45:52.761Z,5.26
2023-11-25T09:46:52.782Z,5.25
2023-11-25T09:47:52.804Z,5.20
2023-11-25T09:48:52.734Z,5.23
2023-11-25T09:49:52.713Z,5.25
2023-11-25T09:50:52.765Z,5.20
2023-11-25T09:51:52.725Z,5.28
2023-11-25T09:52:53.316Z,5.30
2023-11-25T09:53:52.663Z,5.26
2023-11-25T09:54:52.663Z,5.29
2023-11-25T09:55:52.693Z,5.32
2023-11-25T09:56:52.703Z,5.38
2023-11-25T09:57:52.625Z,5.41
2023-11-25T09:58:52.660Z,5.50
2023-11-25T09:59:52.620Z,5.51
2023-11-25T10:00:52.630Z,5.47
2023-11-25T10:01:52.699Z,5.48
2023-11-25T10:02:52.935Z,5.39
2023-11-25T10:03:52.642Z,5.36
2023-11-25T10:04:52.711Z,5.43
2023-11-25T10:05:52.574Z,5.48
2023-11-25T10:06:52.532Z,5.53
2023-11-25T10:07:52.832Z,5.57
2023-11-25T10:08:52.603Z,5.65
2023-11-25T10:09:52.546Z,5.65
2023-11-25T10:10:52.509Z,5.57
2023-11-25T10:11:52.493Z,5.56
2023-11-25T10:12:52.676Z,5.54
2023-11-25T10:13:52.523Z,5.59
2023-11-25T10:14:52.595Z,5.62
2023-11-25T10:15:52.588Z,5.64
2023-11-25T10:16:52.572Z,5.65
2023-11-25T10:17:52.484Z,5.69
2023-11-25T10:18:52.438Z,5.75
2023-11-25T10:19:52.643Z,5.83
2023-11-25T10:20:52.381Z,5.87
2023-11-25T10:21:52.434Z,5.89
2023-11-25T10:22:52.449Z,5.90
2023-11-25T10:23:52.397Z,5.91
2023-11-25T10:24:52.343Z,5.99
2023-11-25T10:25:52.350Z,6.01
2023-11-25T10:26:52.512Z,6.05
2023-11-25T10:27:52.418Z,6.09
2023-11-25T10:28:52.385Z,6.11
2023-11-25T10:29:52.292Z,6.09
2023-11-25T10:30:53.031Z,6.09
2023-11-25T10:31:52.268Z,6.08
2023-11-25T10:32:52.322Z,6.05
2023-11-25T10:33:52.358Z,5.99
2023-11-25T10:34:52.394Z,5.98
2023-11-25T10:35:52.237Z,5.98
2023-11-25T10:36:52.250Z,5.91
2023-11-25T10:37:52.288Z,5.84
2023-11-25T10:38:52.266Z,5.84
2023-11-25T10:39:52.197Z,5.82
2023-11-25T10:40:52.260Z,5.83
2023-11-25T10:41:52.255Z,5.87
2023-11-25T10:42:52.248Z,5.90
2023-11-25T10:43:52.159Z,5.90
2023-11-25T10:44:52.188Z,5.91
2023-11-25T10:45:52.140Z,5.97
2023-11-25T10:46:52.234Z,5.98
2023-11-25T10:47:52.190Z,6.02
2023-11-25T10:48:52.132Z,6.05
2023-11-25T10:49:52.100Z,6.07
2023-11-25T10:50:52.189Z,6.09
2023-11-25T10:51:52.122Z,6.11
2023-11-25T10:52:52.113Z,6.12
2023-11-25T10:53:52.049Z,6.14
2023-11-25T10:54:52.086Z,6.19
2023-11-25T10:55:52.167Z,6.16
2023-11-25T10:56:52.034Z,6.19
2023-11-25T10:57:52.100Z,6.22
2023-11-25T10:58:52.017Z,6.30
2023-11-25T10:59:52.035Z,6.28
2023-11-25T11:00:52.112Z,6.31
2023-11-25T11:01:52.236Z,6.30
2023-11-25T11:02:52.357Z,6.27
2023-11-25T11:03:51.953Z,6.27
2023-11-25T11:04:51.933Z,6.28
2023-11-25T11:05:51.949Z,6.33
2023-11-25T11:06:51.947Z,6.41
2023-11-25T11:07:51.908Z,6.48
2023-11-25T11:08:51.881Z,6.44
2023-11-25T11:09:51.866Z,6.41
2023-11-25T11:10:52.038Z,6.44
2023-11-25T11:11:51.848Z,6.44
2023-11-25T11:12:51.868Z,6.44
2023-11-25T11:13:51.884Z,6.39
2023-11-25T11:14:51.879Z,6.44
2023-11-25T11:15:51.918Z,6.48
2023-11-25T11:16:51.867Z,6.46
2023-11-25T11:17:51.827Z,6.49
2023-11-25T11:18:51.900Z,6.49
2023-11-25T11:19:51.954Z,6.49
2023-11-25T11:20:51.814Z,6.49
2023-11-25T11:21:51.737Z,6.51
2023-11-25T11:22:51.752Z,6.48
2023-11-25T11:23:51.724Z,6.42
2023-11-25T11:24:51.812Z,6.41
2023-11-25T11:25:51.745Z,6.42
2023-11-25T11:26:51.710Z,6.44
2023-11-25T11:27:51.678Z,6.44
2023-11-25T11:28:51.707Z,6.48
2023-11-25T11:29:51.681Z,6.51
2023-11-25T11:30:51.661Z,6.52
2023-11-25T11:31:51.700Z,6.57
2023-11-25T11:32:51.704Z,6.63
2023-11-25T11:33:51.624Z,6.66
2023-11-25T11:34:51.688Z,6.63
2023-11-25T11:35:51.631Z,6.59
2023-11-25T11:36:51.589Z,6.54
2023-11-25T11:37:51.631Z,6.51
2023-11-25T11:38:51.600Z,6.48
2023-11-25T11:39:51.548Z,6.49
2023-11-25T11:40:51.621Z,6.49
2023-11-25T11:41:51.526Z,6.51
2023-11-25T11:42:51.535Z,6.57
2023-11-25T11:43:51.561Z,6.59
2023-11-25T11:44:51.498Z,6.60
2023-11-25T11:45:51.524Z,6.64
2023-11-25T11:46:51.530Z,6.63
2023-11-25T11:47:51.665Z,6.64
2023-11-25T11:48:51.552Z,6.66
2023-11-25T11:49:51.524Z,6.69
2023-11-25T11:50:51.494Z,6.67
2023-11-25T11:51:51.425Z,6.67
2023-11-25T11:52:51.502Z,6.69
2023-11-25T11:53:51.451Z,6.74
2023-11-25T11:54:51.463Z,6.79
2023-11-25T11:55:51.517Z,6.79
2023-11-25T11:56:51.369Z,6.82
2023-11-25T11:57:51.412Z,6.85
2023-11-25T11:58:51.445Z,6.87
2023-11-25T11:59:51.365Z,6.89
2023-11-25T12:00:51.360Z,6.85
2023-11-25T12:01:51.489Z,6.82
2023-11-25T12:02:51.361Z,6.82
2023-11-25T12:03:51.372Z,6.82
2023-11-25T12:04:51.378Z,6.82
2023-11-25T12:05:51.289Z,6.82
2023-11-25T12:06:51.300Z,6.77
2023-11-25T12:07:51.340Z,6.72
2023-11-25T12:08:51.254Z,6.77
2023-11-25T12:09:51.253Z,6.82
2023-11-25T12:10:51.302Z,6.79
2023-11-25T12:11:51.248Z,6.82
2023-11-25T12:12:51.196Z,6.79
2023-11-25T12:13:51.249Z,6.78
2023-11-25T12:14:53.495Z,6.75
2023-11-25T12:15:51.226Z,6.72
2023-11-25T12:16:51.342Z,6.77
2023-11-25T12:17:51.264Z,6.84
2023-11-25T12:18:51.147Z,6.87
2023-11-25T12:19:51.179Z,6.92
2023-11-25T12:20:51.154Z,6.96
2023-11-25T12:21:51.184Z,6.96
2023-11-25T12:22:51.150Z,7.02
2023-11-25T12:23:51.986Z,7.02
2023-11-25T12:24:51.149Z,7.06
2023-11-25T12:25:51.147Z,7.13
2023-11-25T12:26:51.089Z,7.07
2023-11-25T12:27:51.132Z,7.06
2023-11-25T12:28:51.102Z,7.05
2023-11-25T12:29:51.058Z,7.03
2023-11-25T12:30:51.034Z,7.05
2023-11-25T12:31:51.127Z,7.06
2023-11-25T12:32:51.078Z,7.11
2023-11-25T12:33:50.984Z,7.13
2023-11-25T12:34:51.072Z,7.13
2023-11-25T12:35:50.949Z,7.10
2023-11-25T12:36:50.959Z,7.10
2023-11-25T12:38:04.368Z,7.11
2023-11-25T12:38:50.930Z,7.14
2023-11-25T12:39:50.949Z,7.06
2023-11-25T12:40:50.954Z,7.06
2023-11-25T12:41:50.956Z,7.10
2023-11-25T12:42:50.998Z,7.10
2023-11-25T12:43:50.986Z,7.07
2023-11-25T12:44:50.886Z,7.11
2023-11-25T12:45:50.878Z,7.06
2023-11-25T12:46:50.883Z,6.95
2023-11-25T12:47:50.875Z,6.95
2023-11-25T12:48:50.849Z,6.92
2023-11-25T12:49:51.178Z,6.87
2023-11-25T12:50:50.817Z,6.85
2023-11-25T12:51:50.789Z,6.85
2023-11-25T12:52:50.908Z,6.85
2023-11-25T12:53:50.812Z,6.92
2023-11-25T12:54:50.992Z,6.97
2023-11-25T12:55:50.770Z,7.03
2023-11-25T12:56:50.754Z,7.07
2023-11-25T12:57:50.786Z,7.11
2023-11-25T12:58:50.763Z,7.13
2023-11-25T12:59:50.705Z,7.17
2023-11-25T13:00:51.973Z,7.20
2023-11-25T13:01:50.855Z,7.21
2023-11-25T13:02:50.890Z,7.20
2023-11-25T13:03:50.684Z,7.21
2023-11-25T13:04:50.724Z,7.23
2023-11-25T13:05:50.672Z,7.25
2023-11-25T13:06:50.655Z,7.25
2023-11-25T13:07:50.663Z,7.28
2023-11-25T13:08:50.629Z,7.25
2023-11-25T13:09:51.665Z,7.24
2023-11-25T13:10:50.643Z,7.25
2023-11-25T13:11:50.699Z,7.25
2023-11-25T13:12:50.904Z,7.28
2023-11-25T13:13:50.962Z,7.25
2023-11-25T13:14:50.617Z,7.24
2023-11-25T13:15:50.757Z,7.24
2023-11-25T13:16:50.727Z,7.24
2023-11-25T13:17:50.592Z,7.23
2023-11-25T13:18:50.568Z,7.23